Terminal Aerodrome Forecast
Issued by NWS

Home | Current Version | Previous Version | Graphics & Text | Print | Product List | Glossary On
Versions: 1 2 3 4 5 6 7 8 9 10 11 12 13 14 15 16 17 18
000
FTUS43 KPAH 231500 AAA
TAFCGI
TAF AMD
KCGI 231533Z 2316/2412 23005KT 5SM -TSRA BKN035CB
      TEMPO 2316/2318 06013G25KT 3SM -TSRA SCT012 BKN025CB
     FM231800 33008KT P6SM BKN040
     FM240100 36006KT P6SM SCT025 BKN040=

USA.gov is the U.S. government's official web portal to all federal, state and local government web resources and services.